sensor_id;sensor_type;location;lat;lon;timestamp;pressure;altitude;pressure_sealevel;temperature;humidity
65376;BME280;51976;47.332;9.404;2023-08-06T00:01:25;92254.44;;;13.44;87.05
65376;BME280;51976;47.332;9.404;2023-08-06T00:03:51;92263.19;;;13.41;85.85
65376;BME280;51976;47.332;9.404;2023-08-06T00:06:16;92250.81;;;13.48;85.50
65376;BME280;51976;47.332;9.404;2023-08-06T00:08:41;92253.22;;;13.50;84.81
65376;BME280;51976;47.332;9.404;2023-08-06T00:11:07;92251.59;;;13.49;83.66
65376;BME280;51976;47.332;9.404;2023-08-06T00:13:32;92248.59;;;13.50;83.33
65376;BME280;51976;47.332;9.404;2023-08-06T00:16:10;92252.22;;;13.37;81.78
65376;BME280;51976;47.332;9.404;2023-08-06T00:18:35;92233.59;;;13.44;81.71
65376;BME280;51976;47.332;9.404;2023-08-06T00:21:01;92242.91;;;13.61;81.41
65376;BME280;51976;47.332;9.404;2023-08-06T00:23:26;92234.25;;;13.50;80.86
65376;BME280;51976;47.332;9.404;2023-08-06T00:25:52;92238.53;;;13.42;81.39
65376;BME280;51976;47.332;9.404;2023-08-06T00:28:17;92240.28;;;13.38;81.55
65376;BME280;51976;47.332;9.404;2023-08-06T00:30:42;92233.09;;;13.34;80.96
65376;BME280;51976;47.332;9.404;2023-08-06T00:33:08;92232.47;;;13.37;80.68
65376;BME280;51976;47.332;9.404;2023-08-06T00:35:33;92236.63;;;13.43;80.38
65376;BME280;51976;47.332;9.404;2023-08-06T00:37:58;92231.38;;;13.46;80.43
65376;BME280;51976;47.332;9.404;2023-08-06T00:40:24;92226.47;;;13.57;80.45
65376;BME280;51976;47.332;9.404;2023-08-06T00:42:49;92225.34;;;13.49;80.09
65376;BME280;51976;47.332;9.404;2023-08-06T00:45:15;92219.25;;;13.35;80.51
65376;BME280;51976;47.332;9.404;2023-08-06T00:47:41;92224.88;;;13.56;79.89
65376;BME280;51976;47.332;9.404;2023-08-06T00:50:07;92226.19;;;13.67;79.69
65376;BME280;51976;47.332;9.404;2023-08-06T00:52:34;92216.75;;;13.56;79.66
65376;BME280;51976;47.332;9.404;2023-08-06T00:54:59;92218.34;;;13.57;78.87
65376;BME280;51976;47.332;9.404;2023-08-06T00:57:25;92224.88;;;13.56;79.35
65376;BME280;51976;47.332;9.404;2023-08-06T00:59:52;92219.94;;;13.58;79.21
65376;BME280;51976;47.332;9.404;2023-08-06T01:02:18;92215.28;;;13.50;77.71
65376;BME280;51976;47.332;9.404;2023-08-06T01:04:44;92215.78;;;13.52;77.80
65376;BME280;51976;47.332;9.404;2023-08-06T01:10:38;92222.94;;;13.48;75.36
65376;BME280;51976;47.332;9.404;2023-08-06T01:13:42;92216.91;;;13.51;74.08
65376;BME280;51976;47.332;9.404;2023-08-06T01:16:11;92201.59;;;13.38;72.59
65376;BME280;51976;47.332;9.404;2023-08-06T01:18:40;92205.88;;;13.47;72.21
65376;BME280;51976;47.332;9.404;2023-08-06T01:21:07;92209.88;;;13.50;71.88
65376;BME280;51976;47.332;9.404;2023-08-06T01:23:33;92212.75;;;13.53;71.43
65376;BME280;51976;47.332;9.404;2023-08-06T01:26:09;92201.78;;;13.59;71.80
65376;BME280;51976;47.332;9.404;2023-08-06T01:28:56;92203.69;;;13.58;71.42
65376;BME280;51976;47.332;9.404;2023-08-06T01:31:29;92200.03;;;13.54;71.31
65376;BME280;51976;47.332;9.404;2023-08-06T01:33:56;92187.44;;;13.49;72.24
65376;BME280;51976;47.332;9.404;2023-08-06T01:36:23;92174.00;;;13.27;73.47
65376;BME280;51976;47.332;9.404;2023-08-06T01:38:51;92195.84;;;13.39;74.08
65376;BME280;51976;47.332;9.404;2023-08-06T01:41:17;92190.16;;;13.10;73.37
65376;BME280;51976;47.332;9.404;2023-08-06T01:43:43;92193.53;;;13.15;74.97
65376;BME280;51976;47.332;9.404;2023-08-06T01:46:08;92203.31;;;12.94;75.89
65376;BME280;51976;47.332;9.404;2023-08-06T01:48:33;92202.78;;;12.83;76.17
65376;BME280;51976;47.332;9.404;2023-08-06T01:50:59;92205.03;;;12.90;76.08
65376;BME280;51976;47.332;9.404;2023-08-06T01:53:24;92209.69;;;12.98;75.50
65376;BME280;51976;47.332;9.404;2023-08-06T01:55:49;92201.47;;;13.12;73.65
65376;BME280;51976;47.332;9.404;2023-08-06T01:58:15;92203.16;;;12.99;74.25
65376;BME280;51976;47.332;9.404;2023-08-06T02:00:41;92203.66;;;12.70;75.41
65376;BME280;51976;47.332;9.404;2023-08-06T02:03:06;92213.13;;;12.59;76.59
65376;BME280;51976;47.332;9.404;2023-08-06T02:05:32;92210.16;;;12.38;78.08
65376;BME280;51976;47.332;9.404;2023-08-06T02:07:57;92205.50;;;12.08;78.43
65376;BME280;51976;47.332;9.404;2023-08-06T02:10:22;92206.25;;;12.22;78.60
65376;BME280;51976;47.332;9.404;2023-08-06T02:12:48;92210.34;;;12.42;76.48
65376;BME280;51976;47.332;9.404;2023-08-06T02:15:13;92206.59;;;12.51;77.40
65376;BME280;51976;47.332;9.404;2023-08-06T02:17:39;92201.19;;;12.51;77.55
65376;BME280;51976;47.332;9.404;2023-08-06T02:20:05;92197.28;;;12.66;76.18
65376;BME280;51976;47.332;9.404;2023-08-06T02:22:30;92199.91;;;12.80;76.04
65376;BME280;51976;47.332;9.404;2023-08-06T02:24:56;92196.75;;;12.56;76.37
65376;BME280;51976;47.332;9.404;2023-08-06T02:27:21;92189.47;;;12.65;76.51
65376;BME280;51976;47.332;9.404;2023-08-06T02:29:46;92185.22;;;12.72;76.29
65376;BME280;51976;47.332;9.404;2023-08-06T02:32:12;92188.66;;;12.56;77.42
65376;BME280;51976;47.332;9.404;2023-08-06T02:34:37;92179.56;;;12.51;77.61
65376;BME280;51976;47.332;9.404;2023-08-06T02:37:03;92168.47;;;12.31;76.09
65376;BME280;51976;47.332;9.404;2023-08-06T02:39:28;92164.16;;;12.61;74.45
65376;BME280;51976;47.332;9.404;2023-08-06T02:41:54;92147.69;;;12.71;73.74
65376;BME280;51976;47.332;9.404;2023-08-06T02:44:19;92156.31;;;12.81;70.39
65376;BME280;51976;47.332;9.404;2023-08-06T02:46:45;92156.34;;;12.90;70.47
65376;BME280;51976;47.332;9.404;2023-08-06T02:49:10;92146.00;;;12.92;69.90
65376;BME280;51976;47.332;9.404;2023-08-06T02:51:36;92152.03;;;12.89;68.49
65376;BME280;51976;47.332;9.404;2023-08-06T02:54:01;92148.72;;;12.92;68.40
65376;BME280;51976;47.332;9.404;2023-08-06T02:56:26;92134.91;;;13.02;68.37
65376;BME280;51976;47.332;9.404;2023-08-06T02:58:52;92137.47;;;13.07;68.74
65376;BME280;51976;47.332;9.404;2023-08-06T03:01:17;92128.38;;;13.03;69.66
65376;BME280;51976;47.332;9.404;2023-08-06T03:03:43;92137.47;;;13.07;69.31
65376;BME280;51976;47.332;9.404;2023-08-06T03:06:08;92138.44;;;13.11;68.86
65376;BME280;51976;47.332;9.404;2023-08-06T03:08:34;92137.34;;;13.12;69.09
65376;BME280;51976;47.332;9.404;2023-08-06T03:10:59;92144.00;;;13.06;68.82
65376;BME280;51976;47.332;9.404;2023-08-06T03:13:25;92140.41;;;12.80;69.55
65376;BME280;51976;47.332;9.404;2023-08-06T03:15:52;92142.00;;;12.89;69.80
65376;BME280;51976;47.332;9.404;2023-08-06T03:18:18;92132.47;;;12.83;69.26
65376;BME280;51976;47.332;9.404;2023-08-06T03:20:44;92136.72;;;12.76;69.96
65376;BME280;51976;47.332;9.404;2023-08-06T03:23:10;92143.91;;;12.80;70.78
65376;BME280;51976;47.332;9.404;2023-08-06T03:25:35;92118.38;;;12.56;70.93
65376;BME280;51976;47.332;9.404;2023-08-06T03:28:02;92127.75;;;12.58;70.96
65376;BME280;51976;47.332;9.404;2023-08-06T03:30:27;92119.03;;;12.70;70.92
65376;BME280;51976;47.332;9.404;2023-08-06T03:41:55;92114.56;;;12.65;72.71
65376;BME280;51976;47.332;9.404;2023-08-06T03:44:20;92126.47;;;12.56;72.59
65376;BME280;51976;47.332;9.404;2023-08-06T03:46:45;92107.69;;;12.19;72.96
65376;BME280;51976;47.332;9.404;2023-08-06T03:49:11;92113.25;;;12.54;70.07
65376;BME280;51976;47.332;9.404;2023-08-06T03:51:36;92128.19;;;12.51;71.76
65376;BME280;51976;47.332;9.404;2023-08-06T03:54:02;92130.41;;;12.49;69.32
65376;BME280;51976;47.332;9.404;2023-08-06T03:56:27;92117.88;;;12.53;68.54
65376;BME280;51976;47.332;9.404;2023-08-06T03:58:52;92120.63;;;12.71;67.91
65376;BME280;51976;47.332;9.404;2023-08-06T04:01:18;92123.03;;;12.72;67.72
65376;BME280;51976;47.332;9.404;2023-08-06T04:03:43;92123.06;;;12.81;67.34
65376;BME280;51976;47.332;9.404;2023-08-06T04:06:08;92117.78;;;12.76;67.35
65376;BME280;51976;47.332;9.404;2023-08-06T04:08:34;92123.69;;;12.78;68.17
65376;BME280;51976;47.332;9.404;2023-08-06T04:10:59;92117.03;;;12.84;67.96
65376;BME280;51976;47.332;9.404;2023-08-06T04:13:25;92116.38;;;12.87;67.75
65376;BME280;51976;47.332;9.404;2023-08-06T04:15:50;92118.63;;;12.85;67.77
65376;BME280;51976;47.332;9.404;2023-08-06T04:18:15;92122.78;;;12.91;67.86
65376;BME280;51976;47.332;9.404;2023-08-06T04:20:44;92111.94;;;12.91;67.75
65376;BME280;51976;47.332;9.404;2023-08-06T04:23:10;92121.00;;;12.86;68.12
65376;BME280;51976;47.332;9.404;2023-08-06T04:25:36;92122.78;;;12.91;68.30
65376;BME280;51976;47.332;9.404;2023-08-06T04:28:01;92121.59;;;12.75;69.08
65376;BME280;51976;47.332;9.404;2023-08-06T04:30:27;92124.50;;;12.87;68.79
65376;BME280;51976;47.332;9.404;2023-08-06T04:32:52;92118.94;;;12.92;68.80
65376;BME280;51976;47.332;9.404;2023-08-06T04:35:18;92122.63;;;12.96;68.90
65376;BME280;51976;47.332;9.404;2023-08-06T04:37:43;92122.44;;;12.93;69.05
65376;BME280;51976;47.332;9.404;2023-08-06T04:40:09;92105.91;;;12.85;69.15
65376;BME280;51976;47.332;9.404;2023-08-06T04:42:34;92113.53;;;12.83;69.43
65376;BME280;51976;47.332;9.404;2023-08-06T04:45:01;92117.03;;;12.84;69.60
65376;BME280;51976;47.332;9.404;2023-08-06T04:47:26;92099.03;;;12.79;69.70
65376;BME280;51976;47.332;9.404;2023-08-06T04:49:52;92115.28;;;12.88;69.54
65376;BME280;51976;47.332;9.404;2023-08-06T04:52:18;92114.19;;;12.98;69.67
65376;BME280;51976;47.332;9.404;2023-08-06T04:54:43;92109.94;;;13.05;69.46
65376;BME280;51976;47.332;9.404;2023-08-06T04:57:09;92118.03;;;13.05;69.91
65376;BME280;51976;47.332;9.404;2023-08-06T04:59:35;92122.16;;;12.94;70.24
65376;BME280;51976;47.332;9.404;2023-08-06T05:02:00;92117.53;;;12.95;70.27
65376;BME280;51976;47.332;9.404;2023-08-06T05:04:26;92120.38;;;12.89;70.68
65376;BME280;51976;47.332;9.404;2023-08-06T05:06:52;92129.91;;;12.87;71.01
65376;BME280;51976;47.332;9.404;2023-08-06T05:09:17;92131.50;;;12.88;71.17
65376;BME280;51976;47.332;9.404;2023-08-06T05:11:42;92133.72;;;12.86;70.76
65376;BME280;51976;47.332;9.404;2023-08-06T05:14:08;92136.34;;;13.00;70.90
65376;BME280;51976;47.332;9.404;2023-08-06T05:16:33;92125.03;;;12.98;70.92
65376;BME280;51976;47.332;9.404;2023-08-06T05:18:58;92139.69;;;13.05;70.32
65376;BME280;51976;47.332;9.404;2023-08-06T05:21:24;92134.47;;;13.09;70.22
65376;BME280;51976;47.332;9.404;2023-08-06T05:23:49;92137.66;;;13.11;70.46
65376;BME280;51976;47.332;9.404;2023-08-06T05:26:14;92135.25;;;13.09;70.13
65376;BME280;51976;47.332;9.404;2023-08-06T05:28:44;92142.59;;;13.17;70.46
65376;BME280;51976;47.332;9.404;2023-08-06T05:31:09;92137.19;;;13.17;69.88
65376;BME280;51976;47.332;9.404;2023-08-06T05:33:35;92151.69;;;13.21;70.17
65376;BME280;51976;47.332;9.404;2023-08-06T05:36:00;92143.41;;;13.18;70.14
65376;BME280;51976;47.332;9.404;2023-08-06T05:38:26;92144.38;;;13.22;69.99
65376;BME280;51976;47.332;9.404;2023-08-06T05:40:52;92155.38;;;13.26;69.96
65376;BME280;51976;47.332;9.404;2023-08-06T05:43:17;92156.16;;;13.26;70.20
65376;BME280;51976;47.332;9.404;2023-08-06T05:45:45;92151.38;;;13.23;70.49
65376;BME280;51976;47.332;9.404;2023-08-06T05:48:12;92150.59;;;13.23;70.27
65376;BME280;51976;47.332;9.404;2023-08-06T05:50:37;92148.69;;;13.32;70.17
65376;BME280;51976;47.332;9.404;2023-08-06T05:53:02;92149.31;;;13.29;69.42
65376;BME280;51976;47.332;9.404;2023-08-06T05:55:28;92171.25;;;13.18;69.27
65376;BME280;51976;47.332;9.404;2023-08-06T05:57:53;92163.78;;;13.15;69.65
65376;BME280;51976;47.332;9.404;2023-08-06T06:00:20;92177.31;;;13.15;69.82
65376;BME280;51976;47.332;9.404;2023-08-06T06:02:46;92181.25;;;13.09;70.12
65376;BME280;51976;47.332;9.404;2023-08-06T06:05:11;92187.72;;;13.00;71.26
65376;BME280;51976;47.332;9.404;2023-08-06T06:07:37;92187.19;;;12.89;70.92
65376;BME280;51976;47.332;9.404;2023-08-06T06:10:02;92199.59;;;12.81;72.24
65376;BME280;51976;47.332;9.404;2023-08-06T06:12:28;92197.78;;;12.68;73.48
65376;BME280;51976;47.332;9.404;2023-08-06T06:14:53;92183.91;;;12.30;77.91
65376;BME280;51976;47.332;9.404;2023-08-06T06:17:19;92196.59;;;12.07;80.82
65376;BME280;51976;47.332;9.404;2023-08-06T06:19:44;92195.19;;;11.88;82.54
65376;BME280;51976;47.332;9.404;2023-08-06T06:22:09;92203.91;;;11.71;83.93
65376;BME280;51976;47.332;9.404;2023-08-06T06:24:35;92204.31;;;11.64;84.69
65376;BME280;51976;47.332;9.404;2023-08-06T06:27:00;92220.13;;;11.57;85.55
65376;BME280;51976;47.332;9.404;2023-08-06T06:29:25;92218.22;;;11.58;85.97
65376;BME280;51976;47.332;9.404;2023-08-06T06:31:51;92228.50;;;11.69;85.70
65376;BME280;51976;47.332;9.404;2023-08-06T06:34:16;92221.63;;;11.49;85.78
65376;BME280;51976;47.332;9.404;2023-08-06T06:36:42;92234.13;;;11.59;85.94
65376;BME280;51976;47.332;9.404;2023-08-06T06:39:07;92230.53;;;11.50;86.05
65376;BME280;51976;47.332;9.404;2023-08-06T06:41:33;92232.72;;;11.62;86.04
65376;BME280;51976;47.332;9.404;2023-08-06T06:43:59;92240.50;;;11.77;85.59
65376;BME280;51976;47.332;9.404;2023-08-06T06:46:24;92245.09;;;11.76;85.41
65376;BME280;51976;47.332;9.404;2023-08-06T06:48:50;92237.88;;;11.85;84.43
65376;BME280;51976;47.332;9.404;2023-08-06T06:51:15;92237.59;;;11.73;84.05
65376;BME280;51976;47.332;9.404;2023-08-06T06:53:40;92237.31;;;11.75;82.38
65376;BME280;51976;47.332;9.404;2023-08-06T06:56:06;92234.09;;;11.86;82.14
65376;BME280;51976;47.332;9.404;2023-08-06T06:58:32;92246.59;;;11.82;81.22
65376;BME280;51976;47.332;9.404;2023-08-06T07:00:58;92232.38;;;11.91;80.49
65376;BME280;51976;47.332;9.404;2023-08-06T07:03:23;92229.56;;;11.96;80.89
65376;BME280;51976;47.332;9.404;2023-08-06T07:05:49;92241.69;;;12.20;80.28
65376;BME280;51976;47.332;9.404;2023-08-06T07:08:15;92234.50;;;12.16;77.66
65376;BME280;51976;47.332;9.404;2023-08-06T07:10:41;92237.25;;;12.02;77.38
65376;BME280;51976;47.332;9.404;2023-08-06T07:13:07;92255.22;;;12.07;74.85
65376;BME280;51976;47.332;9.404;2023-08-06T07:15:32;92249.50;;;12.08;75.52
65376;BME280;51976;47.332;9.404;2023-08-06T07:17:58;92250.41;;;12.17;75.10
65376;BME280;51976;47.332;9.404;2023-08-06T07:20:23;92259.06;;;12.28;74.83
65376;BME280;51976;47.332;9.404;2023-08-06T07:22:48;92271.59;;;12.24;74.30
65376;BME280;51976;47.332;9.404;2023-08-06T07:25:15;92269.38;;;12.26;73.71
65376;BME280;51976;47.332;9.404;2023-08-06T07:27:40;92256.69;;;12.27;71.70
65376;BME280;51976;47.332;9.404;2023-08-06T07:30:06;92272.28;;;12.30;72.66
65376;BME280;51976;47.332;9.404;2023-08-06T07:32:32;92270.72;;;12.37;72.08
65376;BME280;51976;47.332;9.404;2023-08-06T07:34:57;92277.06;;;12.55;71.76
65376;BME280;51976;47.332;9.404;2023-08-06T07:37:26;92271.59;;;12.69;71.00
65376;BME280;51976;47.332;9.404;2023-08-06T07:39:53;92274.59;;;12.67;70.62
65376;BME280;51976;47.332;9.404;2023-08-06T07:42:18;92270.09;;;13.16;69.35
65376;BME280;51976;47.332;9.404;2023-08-06T07:44:51;92266.78;;;13.59;68.69
65376;BME280;51976;47.332;9.404;2023-08-06T07:47:18;92271.53;;;13.53;68.07
65376;BME280;51976;47.332;9.404;2023-08-06T07:49:43;92268.06;;;13.70;67.70
65376;BME280;51976;47.332;9.404;2023-08-06T07:52:09;92269.19;;;13.20;67.35
65376;BME280;51976;47.332;9.404;2023-08-06T07:54:36;92273.66;;;13.25;67.08
65376;BME280;51976;47.332;9.404;2023-08-06T07:57:01;92269.50;;;13.19;67.65
65376;BME280;51976;47.332;9.404;2023-08-06T07:59:27;92273.63;;;13.56;66.83
65376;BME280;51976;47.332;9.404;2023-08-06T08:01:52;92283.06;;;13.67;66.94
65376;BME280;51976;47.332;9.404;2023-08-06T08:04:18;92273.34;;;13.66;66.24
65376;BME280;51976;47.332;9.404;2023-08-06T08:06:43;92271.44;;;13.75;66.04
65376;BME280;51976;47.332;9.404;2023-08-06T08:09:08;92257.63;;;13.94;65.73
65376;BME280;51976;47.332;9.404;2023-08-06T08:11:34;92277.66;;;13.76;66.04
65376;BME280;51976;47.332;9.404;2023-08-06T08:13:59;92277.09;;;13.48;66.56
65376;BME280;51976;47.332;9.404;2023-08-06T08:16:24;92279.69;;;13.70;65.41
65376;BME280;51976;47.332;9.404;2023-08-06T08:18:50;92285.56;;;13.55;66.09
65376;BME280;51976;47.332;9.404;2023-08-06T08:21:15;92267.94;;;13.66;65.94
65376;BME280;51976;47.332;9.404;2023-08-06T08:23:41;92268.88;;;13.70;65.69
65376;BME280;51976;47.332;9.404;2023-08-06T08:26:07;92282.63;;;13.82;64.85
65376;BME280;51976;47.332;9.404;2023-08-06T08:28:32;92280.00;;;13.60;65.71
65376;BME280;51976;47.332;9.404;2023-08-06T08:30:58;92286.72;;;13.63;65.18
65376;BME280;51976;47.332;9.404;2023-08-06T08:33:23;92291.81;;;13.64;64.91
65376;BME280;51976;47.332;9.404;2023-08-06T08:35:49;92284.91;;;13.49;64.64
65376;BME280;51976;47.332;9.404;2023-08-06T08:38:14;92270.88;;;13.39;65.53
65376;BME280;51976;47.332;9.404;2023-08-06T08:40:45;92276.72;;;13.32;65.15
65376;BME280;51976;47.332;9.404;2023-08-06T08:43:15;92287.81;;;13.22;65.63
65376;BME280;51976;47.332;9.404;2023-08-06T08:45:42;92280.50;;;13.23;65.31
65376;BME280;51976;47.332;9.404;2023-08-06T08:48:11;92279.50;;;13.18;64.81
65376;BME280;51976;47.332;9.404;2023-08-06T08:50:38;92292.97;;;13.41;64.47
65376;BME280;51976;47.332;9.404;2023-08-06T08:53:04;92286.63;;;13.45;64.33
65376;BME280;51976;47.332;9.404;2023-08-06T08:55:31;92291.81;;;13.64;64.02
65376;BME280;51976;47.332;9.404;2023-08-06T08:57:57;92312.69;;;13.64;63.79
65376;BME280;51976;47.332;9.404;2023-08-06T09:00:22;92300.25;;;13.71;63.54
65376;BME280;51976;47.332;9.404;2023-08-06T09:02:49;92292.75;;;13.68;63.35
65376;BME280;51976;47.332;9.404;2023-08-06T09:05:15;92303.94;;;13.75;63.22
65376;BME280;51976;47.332;9.404;2023-08-06T09:07:48;92311.88;;;13.63;63.82
65376;BME280;51976;47.332;9.404;2023-08-06T09:10:14;92322.94;;;13.44;65.44
65376;BME280;51976;47.332;9.404;2023-08-06T09:12:43;92329.94;;;13.45;65.92
65376;BME280;51976;47.332;9.404;2023-08-06T09:15:10;92350.47;;;13.38;68.08
65376;BME280;51976;47.332;9.404;2023-08-06T09:17:36;92358.91;;;13.14;67.63
65376;BME280;51976;47.332;9.404;2023-08-06T09:20:12;92332.28;;;13.07;68.81
65376;BME280;51976;47.332;9.404;2023-08-06T09:22:39;92375.09;;;12.83;70.46
65376;BME280;51976;47.332;9.404;2023-08-06T09:25:06;92359.63;;;12.61;69.54
65376;BME280;51976;47.332;9.404;2023-08-06T09:27:36;92372.06;;;12.62;70.00
65376;BME280;51976;47.332;9.404;2023-08-06T09:30:03;92367.91;;;12.42;70.51
65376;BME280;51976;47.332;9.404;2023-08-06T09:32:44;92365.31;;;12.51;70.57
65376;BME280;51976;47.332;9.404;2023-08-06T09:35:15;92366.94;;;12.38;70.93
65376;BME280;51976;47.332;9.404;2023-08-06T09:37:41;92361.47;;;12.30;71.93
65376;BME280;51976;47.332;9.404;2023-08-06T09:40:25;92365.47;;;12.18;72.60
65376;BME280;51976;47.332;9.404;2023-08-06T09:42:51;92358.75;;;12.30;72.09
65376;BME280;51976;47.332;9.404;2023-08-06T09:45:17;92361.31;;;12.35;71.60
65376;BME280;51976;47.332;9.404;2023-08-06T09:47:42;92357.53;;;12.36;72.44
65376;BME280;51976;47.332;9.404;2023-08-06T09:50:18;92368.28;;;12.27;72.53
65376;BME280;51976;47.332;9.404;2023-08-06T09:52:44;92362.97;;;12.22;73.45
65376;BME280;51976;47.332;9.404;2023-08-06T09:55:11;92361.28;;;12.12;74.69
65376;BME280;51976;47.332;9.404;2023-08-06T09:57:38;92360.81;;;12.33;74.30
65376;BME280;51976;47.332;9.404;2023-08-06T10:00:03;92356.47;;;12.23;74.62
65376;BME280;51976;47.332;9.404;2023-08-06T10:02:32;92355.09;;;12.48;74.09
65376;BME280;51976;47.332;9.404;2023-08-06T10:04:58;92360.72;;;12.74;74.01
65376;BME280;51976;47.332;9.404;2023-08-06T10:07:24;92348.88;;;13.14;73.58
65376;BME280;51976;47.332;9.404;2023-08-06T10:09:50;92347.06;;;13.24;72.95
65376;BME280;51976;47.332;9.404;2023-08-06T10:12:16;92341.94;;;13.53;73.24
65376;BME280;51976;47.332;9.404;2023-08-06T10:14:46;92343.81;;;13.83;71.96
65376;BME280;51976;47.332;9.404;2023-08-06T10:17:12;92352.91;;;13.96;71.40
65376;BME280;51976;47.332;9.404;2023-08-06T10:19:37;92343.34;;;13.90;71.13
65376;BME280;51976;47.332;9.404;2023-08-06T10:22:13;92335.06;;;13.95;70.09
65376;BME280;51976;47.332;9.404;2023-08-06T10:24:53;92358.78;;;13.81;70.32
65376;BME280;51976;47.332;9.404;2023-08-06T10:27:20;92345.75;;;14.00;68.41
65376;BME280;51976;47.332;9.404;2023-08-06T10:29:46;92361.41;;;14.03;67.29
65376;BME280;51976;47.332;9.404;2023-08-06T10:32:11;92347.63;;;13.82;68.26
65376;BME280;51976;47.332;9.404;2023-08-06T10:34:57;92375.16;;;13.67;68.29
65376;BME280;51976;47.332;9.404;2023-08-06T10:37:24;92353.69;;;13.48;68.79
65376;BME280;51976;47.332;9.404;2023-08-06T10:39:52;92363.78;;;13.26;70.48
65376;BME280;51976;47.332;9.404;2023-08-06T10:42:29;92368.63;;;13.37;70.49
65376;BME280;51976;47.332;9.404;2023-08-06T10:45:15;92364.09;;;13.24;70.67
65376;BME280;51976;47.332;9.404;2023-08-06T10:47:43;92365.88;;;13.29;71.33
65376;BME280;51976;47.332;9.404;2023-08-06T10:50:12;92369.81;;;13.23;71.19
65376;BME280;51976;47.332;9.404;2023-08-06T10:52:38;92373.38;;;13.32;70.95
65376;BME280;51976;47.332;9.404;2023-08-06T10:55:04;92380.09;;;13.43;71.38
65376;BME280;51976;47.332;9.404;2023-08-06T10:57:30;92366.38;;;13.70;71.13
65376;BME280;51976;47.332;9.404;2023-08-06T10:59:55;92374.38;;;13.75;70.53
65376;BME280;51976;47.332;9.404;2023-08-06T11:02:20;92362.56;;;13.71;69.85
65376;BME280;51976;47.332;9.404;2023-08-06T11:04:47;92372.53;;;13.53;71.62
65376;BME280;51976;47.332;9.404;2023-08-06T11:07:13;92387.63;;;13.46;71.54
65376;BME280;51976;47.332;9.404;2023-08-06T11:09:38;92397.78;;;13.40;71.40
65376;BME280;51976;47.332;9.404;2023-08-06T11:12:09;92388.03;;;13.31;71.92
65376;BME280;51976;47.332;9.404;2023-08-06T11:14:35;92399.59;;;13.23;71.85
65376;BME280;51976;47.332;9.404;2023-08-06T11:17:01;92399.94;;;13.30;71.26
65376;BME280;51976;47.332;9.404;2023-08-06T11:19:26;92399.09;;;13.20;71.56
65376;BME280;51976;47.332;9.404;2023-08-06T11:21:52;92388.25;;;12.98;70.79
65376;BME280;51976;47.332;9.404;2023-08-06T11:24:18;92398.47;;;12.79;71.49
65376;BME280;51976;47.332;9.404;2023-08-06T11:26:43;92392.63;;;12.49;73.06
65376;BME280;51976;47.332;9.404;2023-08-06T11:29:10;92400.59;;;12.68;72.20
65376;BME280;51976;47.332;9.404;2023-08-06T11:31:36;92399.69;;;12.59;73.72
65376;BME280;51976;47.332;9.404;2023-08-06T11:34:01;92403.41;;;12.63;74.10
65376;BME280;51976;47.332;9.404;2023-08-06T11:36:30;92408.38;;;12.83;72.88
65376;BME280;51976;47.332;9.404;2023-08-06T11:38:57;92406.09;;;12.99;73.37
65376;BME280;51976;47.332;9.404;2023-08-06T11:41:23;92401.22;;;12.87;73.34
65376;BME280;51976;47.332;9.404;2023-08-06T11:43:48;92404.59;;;12.71;73.84
65376;BME280;51976;47.332;9.404;2023-08-06T11:46:14;92411.06;;;12.83;73.26
65376;BME280;51976;47.332;9.404;2023-08-06T11:48:52;92400.19;;;12.97;74.12
65376;BME280;51976;47.332;9.404;2023-08-06T11:51:17;92410.28;;;13.05;73.40
65376;BME280;51976;47.332;9.404;2023-08-06T11:53:48;92409.16;;;12.84;73.79
65376;BME280;51976;47.332;9.404;2023-08-06T11:56:14;92410.56;;;12.81;74.90
65376;BME280;51976;47.332;9.404;2023-08-06T11:58:43;92393.84;;;12.79;73.48
65376;BME280;51976;47.332;9.404;2023-08-06T12:01:08;92399.63;;;12.86;73.85
65376;BME280;51976;47.332;9.404;2023-08-06T12:03:39;92406.69;;;12.74;73.94
65376;BME280;51976;47.332;9.404;2023-08-06T12:06:05;92411.22;;;12.65;74.51
65376;BME280;51976;47.332;9.404;2023-08-06T12:08:30;92409.91;;;12.62;75.13
65376;BME280;51976;47.332;9.404;2023-08-06T12:10:56;92399.25;;;12.57;75.40
65376;BME280;51976;47.332;9.404;2023-08-06T12:13:21;92401.28;;;12.74;75.92
65376;BME280;51976;47.332;9.404;2023-08-06T12:15:46;92403.59;;;12.67;75.77
65376;BME280;51976;47.332;9.404;2023-08-06T12:18:12;92411.22;;;12.65;75.20
65376;BME280;51976;47.332;9.404;2023-08-06T12:20:37;92413.63;;;12.88;75.50
65376;BME280;51976;47.332;9.404;2023-08-06T12:23:03;92411.72;;;12.67;75.88
65376;BME280;51976;47.332;9.404;2023-08-06T12:25:29;92422.13;;;12.73;75.33
65376;BME280;51976;47.332;9.404;2023-08-06T12:27:54;92426.00;;;12.81;76.05
65376;BME280;51976;47.332;9.404;2023-08-06T12:30:20;92421.03;;;12.97;75.50
65376;BME280;51976;47.332;9.404;2023-08-06T12:32:45;92414.28;;;13.08;75.63
65376;BME280;51976;47.332;9.404;2023-08-06T12:35:11;92413.53;;;13.16;75.69
65376;BME280;51976;47.332;9.404;2023-08-06T12:37:36;92413.50;;;13.30;74.85
65376;BME280;51976;47.332;9.404;2023-08-06T12:40:04;92411.94;;;13.37;73.40
65376;BME280;51976;47.332;9.404;2023-08-06T12:42:29;92421.31;;;13.31;72.85
65376;BME280;51976;47.332;9.404;2023-08-06T12:44:55;92426.34;;;13.24;73.05
65376;BME280;51976;47.332;9.404;2023-08-06T12:47:20;92424.94;;;13.13;73.22
65376;BME280;51976;47.332;9.404;2023-08-06T12:49:46;92425.41;;;13.06;73.46
65376;BME280;51976;47.332;9.404;2023-08-06T12:52:12;92415.50;;;13.02;73.51
65376;BME280;51976;47.332;9.404;2023-08-06T12:54:40;92433.81;;;12.82;75.06
65376;BME280;51976;47.332;9.404;2023-08-06T12:57:05;92434.84;;;12.73;75.38
65376;BME280;51976;47.332;9.404;2023-08-06T12:59:31;92444.78;;;12.86;75.58
65376;BME280;51976;47.332;9.404;2023-08-06T13:01:58;92437.53;;;13.09;74.53
65376;BME280;51976;47.332;9.404;2023-08-06T13:04:24;92428.88;;;13.20;74.95
65376;BME280;51976;47.332;9.404;2023-08-06T13:06:49;92440.69;;;13.25;75.08
65376;BME280;51976;47.332;9.404;2023-08-06T13:09:15;92430.16;;;13.23;74.40